sensor_id;sensor_type;location;lat;lon;timestamp;temperature;humidity
4643;DHT22;2334;48.710;9.622;2023-03-05T00:01:04;2.00;99.90
4643;DHT22;2334;48.710;9.622;2023-03-05T00:03:32;1.90;99.90
4643;DHT22;2334;48.710;9.622;2023-03-05T00:06:00;1.90;99.90
4643;DHT22;2334;48.710;9.622;2023-03-05T00:08:28;1.90;99.90
4643;DHT22;2334;48.710;9.622;2023-03-05T00:10:55;1.90;99.90
4643;DHT22;2334;48.710;9.622;2023-03-05T00:13:22;1.90;99.90
4643;DHT22;2334;48.710;9.622;2023-03-05T00:15:49;1.90;99.90
4643;DHT22;2334;48.710;9.622;2023-03-05T00:18:17;1.90;99.90
4643;DHT22;2334;48.710;9.622;2023-03-05T00:20:45;2.00;99.90
4643;DHT22;2334;48.710;9.622;2023-03-05T00:23:13;2.00;99.90
4643;DHT22;2334;48.710;9.622;2023-03-05T00:25:40;2.00;99.90
4643;DHT22;2334;48.710;9.622;2023-03-05T00:28:08;1.90;99.90
4643;DHT22;2334;48.710;9.622;2023-03-05T00:30:35;1.90;99.90
4643;DHT22;2334;48.710;9.622;2023-03-05T00:33:02;1.90;99.90
4643;DHT22;2334;48.710;9.622;2023-03-05T00:35:29;1.90;99.90
4643;DHT22;2334;48.710;9.622;2023-03-05T00:37:56;1.90;99.90
4643;DHT22;2334;48.710;9.622;2023-03-05T00:40:25;1.90;99.90
4643;DHT22;2334;48.710;9.622;2023-03-05T00:42:51;1.90;99.90
4643;DHT22;2334;48.710;9.622;2023-03-05T00:45:18;1.90;99.90
4643;DHT22;2334;48.710;9.622;2023-03-05T00:47:45;1.90;99.90
4643;DHT22;2334;48.710;9.622;2023-03-05T00:50:12;1.90;99.90
4643;DHT22;2334;48.710;9.622;2023-03-05T00:52:39;2.00;99.90
4643;DHT22;2334;48.710;9.622;2023-03-05T00:55:06;2.00;99.90
4643;DHT22;2334;48.710;9.622;2023-03-05T00:57:35;2.00;99.90
4643;DHT22;2334;48.710;9.622;2023-03-05T01:00:03;2.00;99.90
4643;DHT22;2334;48.710;9.622;2023-03-05T01:02:31;2.00;99.90
4643;DHT22;2334;48.710;9.622;2023-03-05T01:04:57;2.00;99.90
4643;DHT22;2334;48.710;9.622;2023-03-05T01:07:24;2.00;99.90
4643;DHT22;2334;48.710;9.622;2023-03-05T01:09:51;2.00;99.90
4643;DHT22;2334;48.710;9.622;2023-03-05T01:12:18;2.00;99.90
4643;DHT22;2334;48.710;9.622;2023-03-05T01:14:46;2.00;99.90
4643;DHT22;2334;48.710;9.622;2023-03-05T01:17:13;2.10;99.90
4643;DHT22;2334;48.710;9.622;2023-03-05T01:19:40;2.00;99.90
4643;DHT22;2334;48.710;9.622;2023-03-05T01:22:07;2.00;99.90
4643;DHT22;2334;48.710;9.622;2023-03-05T01:24:33;2.00;99.90
4643;DHT22;2334;48.710;9.622;2023-03-05T01:27:00;2.00;99.90
4643;DHT22;2334;48.710;9.622;2023-03-05T01:29:27;2.00;99.90
4643;DHT22;2334;48.710;9.622;2023-03-05T01:31:55;2.00;99.90
4643;DHT22;2334;48.710;9.622;2023-03-05T01:34:22;1.90;99.90
4643;DHT22;2334;48.710;9.622;2023-03-05T01:36:49;1.90;99.90
4643;DHT22;2334;48.710;9.622;2023-03-05T01:39:16;1.90;99.90
4643;DHT22;2334;48.710;9.622;2023-03-05T01:41:43;1.90;99.90
4643;DHT22;2334;48.710;9.622;2023-03-05T01:44:20;1.80;99.90
4643;DHT22;2334;48.710;9.622;2023-03-05T01:46:48;1.80;99.90
4643;DHT22;2334;48.710;9.622;2023-03-05T01:49:22;1.80;99.90
4643;DHT22;2334;48.710;9.622;2023-03-05T01:52:02;1.90;99.90
4643;DHT22;2334;48.710;9.622;2023-03-05T01:54:33;1.90;99.90
4643;DHT22;2334;48.710;9.622;2023-03-05T01:57:05;1.90;99.90
4643;DHT22;2334;48.710;9.622;2023-03-05T01:59:34;1.90;99.90
4643;DHT22;2334;48.710;9.622;2023-03-05T02:02:02;1.90;99.90
4643;DHT22;2334;48.710;9.622;2023-03-05T02:04:36;1.90;99.90
4643;DHT22;2334;48.710;9.622;2023-03-05T02:07:07;1.90;99.90
4643;DHT22;2334;48.710;9.622;2023-03-05T02:09:37;1.90;99.90
4643;DHT22;2334;48.710;9.622;2023-03-05T02:12:04;1.90;99.90
4643;DHT22;2334;48.710;9.622;2023-03-05T02:14:32;1.90;99.90
4643;DHT22;2334;48.710;9.622;2023-03-05T02:16:59;1.90;99.90
4643;DHT22;2334;48.710;9.622;2023-03-05T02:19:26;1.90;99.90
4643;DHT22;2334;48.710;9.622;2023-03-05T02:21:54;1.90;99.90
4643;DHT22;2334;48.710;9.622;2023-03-05T02:24:34;1.90;99.90
4643;DHT22;2334;48.710;9.622;2023-03-05T02:27:02;1.90;99.90
4643;DHT22;2334;48.710;9.622;2023-03-05T02:29:30;1.90;99.90
4643;DHT22;2334;48.710;9.622;2023-03-05T02:31:58;1.90;99.90
4643;DHT22;2334;48.710;9.622;2023-03-05T02:34:25;2.00;99.90
4643;DHT22;2334;48.710;9.622;2023-03-05T02:36:54;2.00;99.90
4643;DHT22;2334;48.710;9.622;2023-03-05T02:39:21;2.00;99.90
4643;DHT22;2334;48.710;9.622;2023-03-05T02:41:48;2.00;99.90
4643;DHT22;2334;48.710;9.622;2023-03-05T02:44:14;2.00;99.90
4643;DHT22;2334;48.710;9.622;2023-03-05T02:46:41;2.00;99.90
4643;DHT22;2334;48.710;9.622;2023-03-05T02:49:08;2.00;99.90
4643;DHT22;2334;48.710;9.622;2023-03-05T02:51:35;2.00;99.90
4643;DHT22;2334;48.710;9.622;2023-03-05T02:54:03;2.10;99.90
4643;DHT22;2334;48.710;9.622;2023-03-05T02:56:30;2.10;99.90
4643;DHT22;2334;48.710;9.622;2023-03-05T02:58:57;2.10;99.90
4643;DHT22;2334;48.710;9.622;2023-03-05T03:01:24;2.10;99.90
4643;DHT22;2334;48.710;9.622;2023-03-05T03:03:52;2.10;99.90
4643;DHT22;2334;48.710;9.622;2023-03-05T03:06:19;2.10;99.90
4643;DHT22;2334;48.710;9.622;2023-03-05T03:08:46;2.00;99.90
4643;DHT22;2334;48.710;9.622;2023-03-05T03:11:14;2.10;99.90
4643;DHT22;2334;48.710;9.622;2023-03-05T03:13:42;2.10;99.90
4643;DHT22;2334;48.710;9.622;2023-03-05T03:16:10;2.10;99.90
4643;DHT22;2334;48.710;9.622;2023-03-05T03:18:37;2.10;99.90
4643;DHT22;2334;48.710;9.622;2023-03-05T03:21:05;2.00;99.90
4643;DHT22;2334;48.710;9.622;2023-03-05T03:23:33;2.00;99.90
4643;DHT22;2334;48.710;9.622;2023-03-05T03:26:00;2.00;99.90
4643;DHT22;2334;48.710;9.622;2023-03-05T03:28:28;2.00;99.90
4643;DHT22;2334;48.710;9.622;2023-03-05T03:30:55;2.00;99.90
4643;DHT22;2334;48.710;9.622;2023-03-05T03:33:22;2.00;99.90
4643;DHT22;2334;48.710;9.622;2023-03-05T03:35:48;2.00;99.90
4643;DHT22;2334;48.710;9.622;2023-03-05T03:38:15;2.00;99.90
4643;DHT22;2334;48.710;9.622;2023-03-05T03:40:42;2.00;99.90
4643;DHT22;2334;48.710;9.622;2023-03-05T03:43:09;2.00;99.90
4643;DHT22;2334;48.710;9.622;2023-03-05T03:45:40;1.90;99.90
4643;DHT22;2334;48.710;9.622;2023-03-05T03:48:07;1.80;99.90
4643;DHT22;2334;48.710;9.622;2023-03-05T03:50:37;1.80;99.90
4643;DHT22;2334;48.710;9.622;2023-03-05T03:53:04;1.80;99.90
4643;DHT22;2334;48.710;9.622;2023-03-05T03:55:31;1.70;99.90
4643;DHT22;2334;48.710;9.622;2023-03-05T03:57:58;1.80;99.90
4643;DHT22;2334;48.710;9.622;2023-03-05T04:00:25;1.80;99.90
4643;DHT22;2334;48.710;9.622;2023-03-05T04:02:53;1.80;99.90
4643;DHT22;2334;48.710;9.622;2023-03-05T04:05:20;1.90;99.90
4643;DHT22;2334;48.710;9.622;2023-03-05T04:07:47;1.90;99.90
4643;DHT22;2334;48.710;9.622;2023-03-05T04:10:15;1.90;99.90
4643;DHT22;2334;48.710;9.622;2023-03-05T04:12:42;1.90;99.90
4643;DHT22;2334;48.710;9.622;2023-03-05T04:15:11;1.90;99.90
4643;DHT22;2334;48.710;9.622;2023-03-05T04:17:40;1.90;99.90
4643;DHT22;2334;48.710;9.622;2023-03-05T04:20:12;1.90;99.90
4643;DHT22;2334;48.710;9.622;2023-03-05T04:22:39;1.90;99.90
4643;DHT22;2334;48.710;9.622;2023-03-05T04:25:06;1.80;99.90
4643;DHT22;2334;48.710;9.622;2023-03-05T04:27:34;1.80;99.90
4643;DHT22;2334;48.710;9.622;2023-03-05T04:30:03;1.70;99.90
4643;DHT22;2334;48.710;9.622;2023-03-05T04:32:29;1.70;99.90
4643;DHT22;2334;48.710;9.622;2023-03-05T04:34:57;1.70;99.90
4643;DHT22;2334;48.710;9.622;2023-03-05T04:37:25;1.80;99.90
4643;DHT22;2334;48.710;9.622;2023-03-05T04:39:52;1.80;99.90
4643;DHT22;2334;48.710;9.622;2023-03-05T04:42:19;1.80;99.90
4643;DHT22;2334;48.710;9.622;2023-03-05T04:44:46;1.90;99.90
4643;DHT22;2334;48.710;9.622;2023-03-05T04:47:13;1.90;99.90
4643;DHT22;2334;48.710;9.622;2023-03-05T04:49:40;1.90;99.90
4643;DHT22;2334;48.710;9.622;2023-03-05T04:52:07;1.90;99.90
4643;DHT22;2334;48.710;9.622;2023-03-05T04:54:37;2.00;99.90
4643;DHT22;2334;48.710;9.622;2023-03-05T04:57:04;2.00;99.90
4643;DHT22;2334;48.710;9.622;2023-03-05T04:59:31;2.00;99.90
4643;DHT22;2334;48.710;9.622;2023-03-05T05:01:58;2.00;99.90
4643;DHT22;2334;48.710;9.622;2023-03-05T05:04:25;2.00;99.90
4643;DHT22;2334;48.710;9.622;2023-03-05T05:06:54;2.00;99.90
4643;DHT22;2334;48.710;9.622;2023-03-05T05:09:22;2.00;99.90
4643;DHT22;2334;48.710;9.622;2023-03-05T05:11:50;1.90;99.90
4643;DHT22;2334;48.710;9.622;2023-03-05T05:14:17;1.90;99.90
4643;DHT22;2334;48.710;9.622;2023-03-05T05:16:44;1.90;99.90
4643;DHT22;2334;48.710;9.622;2023-03-05T05:19:11;1.90;99.90
4643;DHT22;2334;48.710;9.622;2023-03-05T05:21:38;1.90;99.90
4643;DHT22;2334;48.710;9.622;2023-03-05T05:24:05;2.00;99.90
4643;DHT22;2334;48.710;9.622;2023-03-05T05:26:32;2.00;99.90
4643;DHT22;2334;48.710;9.622;2023-03-05T05:29:01;2.00;99.90
4643;DHT22;2334;48.710;9.622;2023-03-05T05:31:27;2.00;99.90
4643;DHT22;2334;48.710;9.622;2023-03-05T05:33:54;2.00;99.90
4643;DHT22;2334;48.710;9.622;2023-03-05T05:36:21;2.00;99.90
4643;DHT22;2334;48.710;9.622;2023-03-05T05:38:49;2.00;99.90
4643;DHT22;2334;48.710;9.622;2023-03-05T05:41:17;2.00;99.90
4643;DHT22;2334;48.710;9.622;2023-03-05T05:43:44;2.00;99.90
4643;DHT22;2334;48.710;9.622;2023-03-05T05:46:14;1.90;99.90
4643;DHT22;2334;48.710;9.622;2023-03-05T05:48:42;1.90;99.90
4643;DHT22;2334;48.710;9.622;2023-03-05T05:51:11;2.00;99.90
4643;DHT22;2334;48.710;9.622;2023-03-05T05:53:39;2.00;99.90
4643;DHT22;2334;48.710;9.622;2023-03-05T05:56:08;2.00;99.90
4643;DHT22;2334;48.710;9.622;2023-03-05T05:58:36;2.10;99.90
4643;DHT22;2334;48.710;9.622;2023-03-05T06:01:13;2.00;99.90
4643;DHT22;2334;48.710;9.622;2023-03-05T06:03:40;2.10;99.90
4643;DHT22;2334;48.710;9.622;2023-03-05T06:06:10;2.10;99.90
4643;DHT22;2334;48.710;9.622;2023-03-05T06:08:37;2.10;99.90
4643;DHT22;2334;48.710;9.622;2023-03-05T06:11:04;2.10;99.90
4643;DHT22;2334;48.710;9.622;2023-03-05T06:13:32;2.10;99.90
4643;DHT22;2334;48.710;9.622;2023-03-05T06:16:01;2.10;99.90
4643;DHT22;2334;48.710;9.622;2023-03-05T06:18:30;2.10;99.90
4643;DHT22;2334;48.710;9.622;2023-03-05T06:20:58;2.10;99.90
4643;DHT22;2334;48.710;9.622;2023-03-05T06:23:25;2.10;99.90
4643;DHT22;2334;48.710;9.622;2023-03-05T06:25:53;2.10;99.90
4643;DHT22;2334;48.710;9.622;2023-03-05T06:28:19;2.10;99.90
4643;DHT22;2334;48.710;9.622;2023-03-05T06:30:46;2.10;99.90
4643;DHT22;2334;48.710;9.622;2023-03-05T06:33:13;2.10;99.90
4643;DHT22;2334;48.710;9.622;2023-03-05T06:35:44;2.20;99.90
4643;DHT22;2334;48.710;9.622;2023-03-05T06:38:11;2.20;99.90
4643;DHT22;2334;48.710;9.622;2023-03-05T06:40:38;2.20;99.90
4643;DHT22;2334;48.710;9.622;2023-03-05T06:43:05;2.20;99.90
4643;DHT22;2334;48.710;9.622;2023-03-05T06:45:32;2.20;99.90
4643;DHT22;2334;48.710;9.622;2023-03-05T06:47:59;2.20;99.90
4643;DHT22;2334;48.710;9.622;2023-03-05T06:50:26;2.20;99.90
4643;DHT22;2334;48.710;9.622;2023-03-05T06:52:54;2.20;99.90
4643;DHT22;2334;48.710;9.622;2023-03-05T06:55:21;2.20;99.90
4643;DHT22;2334;48.710;9.622;2023-03-05T06:57:48;2.20;99.90
4643;DHT22;2334;48.710;9.622;2023-03-05T07:00:15;2.20;99.90
4643;DHT22;2334;48.710;9.622;2023-03-05T07:02:42;2.20;99.90
4643;DHT22;2334;48.710;9.622;2023-03-05T07:05:09;2.20;99.90
4643;DHT22;2334;48.710;9.622;2023-03-05T07:07:36;2.30;99.90
4643;DHT22;2334;48.710;9.622;2023-03-05T07:10:06;2.30;99.90
4643;DHT22;2334;48.710;9.622;2023-03-05T07:12:33;2.30;99.90
4643;DHT22;2334;48.710;9.622;2023-03-05T07:15:00;2.30;99.90
4643;DHT22;2334;48.710;9.622;2023-03-05T07:17:28;2.40;99.90
4643;DHT22;2334;48.710;9.622;2023-03-05T07:19:55;2.40;99.90
4643;DHT22;2334;48.710;9.622;2023-03-05T07:22:22;2.40;99.90
4643;DHT22;2334;48.710;9.622;2023-03-05T07:24:48;2.50;99.90
4643;DHT22;2334;48.710;9.622;2023-03-05T07:27:17;2.50;99.90
4643;DHT22;2334;48.710;9.622;2023-03-05T07:29:44;2.40;99.90
4643;DHT22;2334;48.710;9.622;2023-03-05T07:32:10;2.50;99.90
4643;DHT22;2334;48.710;9.622;2023-03-05T07:34:37;2.50;99.90
4643;DHT22;2334;48.710;9.622;2023-03-05T07:37:04;2.50;99.90
4643;DHT22;2334;48.710;9.622;2023-03-05T07:39:31;2.60;99.90
4643;DHT22;2334;48.710;9.622;2023-03-05T07:41:58;2.60;99.90
4643;DHT22;2334;48.710;9.622;2023-03-05T07:44:26;2.60;99.90
4643;DHT22;2334;48.710;9.622;2023-03-05T07:46:53;2.60;99.90
4643;DHT22;2334;48.710;9.622;2023-03-05T07:49:20;2.60;99.90
4643;DHT22;2334;48.710;9.622;2023-03-05T07:51:48;2.60;99.90
4643;DHT22;2334;48.710;9.622;2023-03-05T07:54:15;2.60;99.90
4643;DHT22;2334;48.710;9.622;2023-03-05T07:56:42;2.60;99.90
4643;DHT22;2334;48.710;9.622;2023-03-05T07:59:11;2.70;99.90
4643;DHT22;2334;48.710;9.622;2023-03-05T08:01:40;2.70;99.90
4643;DHT22;2334;48.710;9.622;2023-03-05T08:04:07;2.70;99.90
4643;DHT22;2334;48.710;9.622;2023-03-05T08:06:38;2.70;99.90
4643;DHT22;2334;48.710;9.622;2023-03-05T08:09:05;2.70;99.90
4643;DHT22;2334;48.710;9.622;2023-03-05T08:11:32;2.80;99.90
4643;DHT22;2334;48.710;9.622;2023-03-05T08:13:59;2.80;99.90
4643;DHT22;2334;48.710;9.622;2023-03-05T08:16:26;2.70;99.90
4643;DHT22;2334;48.710;9.622;2023-03-05T08:18:56;2.80;99.90
4643;DHT22;2334;48.710;9.622;2023-03-05T08:21:25;2.80;99.90
4643;DHT22;2334;48.710;9.622;2023-03-05T08:23:54;2.90;99.90
4643;DHT22;2334;48.710;9.622;2023-03-05T08:26:23;2.90;99.90
4643;DHT22;2334;48.710;9.622;2023-03-05T08:28:50;2.80;99.90
4643;DHT22;2334;48.710;9.622;2023-03-05T08:31:19;2.90;99.90
4643;DHT22;2334;48.710;9.622;2023-03-05T08:33:46;2.90;99.90
4643;DHT22;2334;48.710;9.622;2023-03-05T08:36:15;2.90;99.90
4643;DHT22;2334;48.710;9.622;2023-03-05T08:38:42;2.90;99.90
4643;DHT22;2334;48.710;9.622;2023-03-05T08:41:11;3.10;99.90
4643;DHT22;2334;48.710;9.622;2023-03-05T08:43:38;3.00;99.90
4643;DHT22;2334;48.710;9.622;2023-03-05T08:46:05;3.00;99.90
4643;DHT22;2334;48.710;9.622;2023-03-05T08:48:33;3.00;99.90
4643;DHT22;2334;48.710;9.622;2023-03-05T08:51:04;3.00;99.90
4643;DHT22;2334;48.710;9.622;2023-03-05T08:53:32;3.10;99.90
4643;DHT22;2334;48.710;9.622;2023-03-05T08:56:00;3.10;99.90
4643;DHT22;2334;48.710;9.622;2023-03-05T08:58:27;3.10;99.90
4643;DHT22;2334;48.710;9.622;2023-03-05T09:00:53;3.10;99.90
4643;DHT22;2334;48.710;9.622;2023-03-05T09:03:21;3.10;99.90
4643;DHT22;2334;48.710;9.622;2023-03-05T09:05:48;3.20;99.90
4643;DHT22;2334;48.710;9.622;2023-03-05T09:08:16;3.20;99.90
4643;DHT22;2334;48.710;9.622;2023-03-05T09:10:45;3.20;99.90
4643;DHT22;2334;48.710;9.622;2023-03-05T09:13:12;3.40;99.90
4643;DHT22;2334;48.710;9.622;2023-03-05T09:15:39;3.40;99.90
4643;DHT22;2334;48.710;9.622;2023-03-05T09:18:06;3.50;99.90
4643;DHT22;2334;48.710;9.622;2023-03-05T09:20:34;3.40;99.90
4643;DHT22;2334;48.710;9.622;2023-03-05T09:23:01;3.50;99.90
4643;DHT22;2334;48.710;9.622;2023-03-05T09:25:28;3.60;99.90
4643;DHT22;2334;48.710;9.622;2023-03-05T09:27:56;3.60;99.90
4643;DHT22;2334;48.710;9.622;2023-03-05T09:30:23;3.70;99.90
4643;DHT22;2334;48.710;9.622;2023-03-05T09:32:50;3.60;99.90
4643;DHT22;2334;48.710;9.622;2023-03-05T09:35:17;3.70;99.90
4643;DHT22;2334;48.710;9.622;2023-03-05T09:37:44;3.80;99.90
4643;DHT22;2334;48.710;9.622;2023-03-05T09:40:14;3.70;99.90
4643;DHT22;2334;48.710;9.622;2023-03-05T09:42:58;3.80;99.90
4643;DHT22;2334;48.710;9.622;2023-03-05T09:45:29;3.80;99.90
4643;DHT22;2334;48.710;9.622;2023-03-05T09:48:05;3.80;99.90
4643;DHT22;2334;48.710;9.622;2023-03-05T09:50:39;3.90;99.90
4643;DHT22;2334;48.710;9.622;2023-03-05T09:53:16;3.80;99.90
4643;DHT22;2334;48.710;9.622;2023-03-05T09:55:46;3.90;99.90
4643;DHT22;2334;48.710;9.622;2023-03-05T09:58:21;3.90;99.90
4643;DHT22;2334;48.710;9.622;2023-03-05T10:00:50;3.90;99.90
4643;DHT22;2334;48.710;9.622;2023-03-05T10:03:26;3.90;99.90
4643;DHT22;2334;48.710;9.622;2023-03-05T10:06:00;3.80;99.90
4643;DHT22;2334;48.710;9.622;2023-03-05T10:08:32;3.80;99.90
4643;DHT22;2334;48.710;9.622;2023-03-05T10:11:05;4.00;99.90
4643;DHT22;2334;48.710;9.622;2023-03-05T10:13:41;4.10;99.90
4643;DHT22;2334;48.710;9.622;2023-03-05T10:16:30;4.00;99.90
4643;DHT22;2334;48.710;9.622;2023-03-05T10:19:03;4.00;99.90
4643;DHT22;2334;48.710;9.622;2023-03-05T10:21:36;4.00;99.90
4643;DHT22;2334;48.710;9.622;2023-03-05T10:24:12;4.10;99.90
4643;DHT22;2334;48.710;9.622;2023-03-05T10:26:56;4.10;99.90
4643;DHT22;2334;48.710;9.622;2023-03-05T10:29:44;4.20;99.90
4643;DHT22;2334;48.710;9.622;2023-03-05T10:32:20;4.30;99.90
4643;DHT22;2334;48.710;9.622;2023-03-05T10:35:30;4.40;99.90
4643;DHT22;2334;48.710;9.622;2023-03-05T10:38:22;4.50;99.90
4643;DHT22;2334;48.710;9.622;2023-03-05T10:40:56;4.40;99.90
4643;DHT22;2334;48.710;9.622;2023-03-05T10:43:33;4.40;99.90
4643;DHT22;2334;48.710;9.622;2023-03-05T10:46:08;4.40;99.90
4643;DHT22;2334;48.710;9.622;2023-03-05T10:48:41;4.60;99.90
4643;DHT22;2334;48.710;9.622;2023-03-05T10:51:14;4.50;99.90
4643;DHT22;2334;48.710;9.622;2023-03-05T10:53:50;4.50;99.90
4643;DHT22;2334;48.710;9.622;2023-03-05T10:56:20;4.50;99.90
4643;DHT22;2334;48.710;9.622;2023-03-05T10:58:47;4.40;99.90
4643;DHT22;2334;48.710;9.622;2023-03-05T11:01:22;4.50;99.90
4643;DHT22;2334;48.710;9.622;2023-03-05T11:03:54;4.50;99.90
4643;DHT22;2334;48.710;9.622;2023-03-05T11:06:36;4.40;99.90
4643;DHT22;2334;48.710;9.622;2023-03-05T11:09:28;4.40;99.90
4643;DHT22;2334;48.710;9.622;2023-03-05T11:12:12;4.50;99.90
4643;DHT22;2334;48.710;9.622;2023-03-05T11:14:41;4.50;99.90
4643;DHT22;2334;48.710;9.622;2023-03-05T11:17:29;4.60;99.90
4643;DHT22;2334;48.710;9.622;2023-03-05T11:19:57;4.70;99.90
4643;DHT22;2334;48.710;9.622;2023-03-05T11:23:01;4.80;99.90
4643;DHT22;2334;48.710;9.622;2023-03-05T11:25:29;4.80;99.90
4643;DHT22;2334;48.710;9.622;2023-03-05T11:27:57;4.70;99.90
4643;DHT22;2334;48.710;9.622;2023-03-05T11:30:28;4.60;99.90
4643;DHT22;2334;48.710;9.622;2023-03-05T11:33:08;4.50;99.90
4643;DHT22;2334;48.710;9.622;2023-03-05T11:35:37;4.50;99.90
4643;DHT22;2334;48.710;9.622;2023-03-05T11:38:10;4.50;99.90
4643;DHT22;2334;48.710;9.622;2023-03-05T11:40:40;4.50;99.90
4643;DHT22;2334;48.710;9.622;2023-03-05T11:43:11;4.60;99.90
4643;DHT22;2334;48.710;9.622;2023-03-05T11:45:40;4.60;99.90
4643;DHT22;2334;48.710;9.622;2023-03-05T11:48:12;4.60;99.90
4643;DHT22;2334;48.710;9.622;2023-03-05T11:50:43;4.70;99.90
4643;DHT22;2334;48.710;9.622;2023-03-05T11:53:16;4.70;99.90
4643;DHT22;2334;48.710;9.622;2023-03-05T11:55:46;4.80;99.90
4643;DHT22;2334;48.710;9.622;2023-03-05T11:58:24;4.80;99.90
4643;DHT22;2334;48.710;9.622;2023-03-05T12:00:53;4.80;99.90
4643;DHT22;2334;48.710;9.622;2023-03-05T12:03:23;4.80;99.90
4643;DHT22;2334;48.710;9.622;2023-03-05T12:05:53;4.70;99.90
4643;DHT22;2334;48.710;9.622;2023-03-05T12:08:26;4.70;99.90
4643;DHT22;2334;48.710;9.622;2023-03-05T12:11:06;4.70;99.90
4643;DHT22;2334;48.710;9.622;2023-03-05T12:13:36;4.60;99.90
4643;DHT22;2334;48.710;9.622;2023-03-05T12:16:13;4.70;99.90
4643;DHT22;2334;48.710;9.622;2023-03-05T12:18:57;4.70;99.90
4643;DHT22;2334;48.710;9.622;2023-03-05T12:21:32;4.80;99.90
4643;DHT22;2334;48.710;9.622;2023-03-05T12:24:32;4.80;99.90
4643;DHT22;2334;48.710;9.622;2023-03-05T12:27:14;4.80;99.90
4643;DHT22;2334;48.710;9.622;2023-03-05T12:29:43;4.60;99.90
4643;DHT22;2334;48.710;9.622;2023-03-05T12:35:30;4.70;99.90
4643;DHT22;2334;48.710;9.622;2023-03-05T12:38:27;4.70;99.90
4643;DHT22;2334;48.710;9.622;2023-03-05T12:44:21;4.70;99.90
4643;DHT22;2334;48.710;9.622;2023-03-05T12:49:48;4.60;99.90
4643;DHT22;2334;48.710;9.622;2023-03-05T12:52:26;4.70;99.90
4643;DHT22;2334;48.710;9.622;2023-03-05T12:55:14;4.70;99.90
4643;DHT22;2334;48.710;9.622;2023-03-05T12:57:46;4.60;99.90
4643;DHT22;2334;48.710;9.622;2023-03-05T13:00:21;4.50;99.90
4643;DHT22;2334;48.710;9.622;2023-03-05T13:02:53;4.50;99.90
4643;DHT22;2334;48.710;9.622;2023-03-05T13:05:25;4.60;99.90
4643;DHT22;2334;48.710;9.622;2023-03-05T13:08:09;4.60;99.90
4643;DHT22;2334;48.710;9.622;2023-03-05T13:10:36;4.60;99.90
4643;DHT22;2334;48.710;9.622;2023-03-05T13:13:03;4.60;99.90
4643;DHT22;2334;48.710;9.622;2023-03-05T13:15:32;4.50;99.90
4643;DHT22;2334;48.710;9.622;2023-03-05T13:18:01;4.50;99.90
4643;DHT22;2334;48.710;9.622;2023-03-05T13:20:34;4.50;99.90
4643;DHT22;2334;48.710;9.622;2023-03-05T13:23:18;4.50;99.90
4643;DHT22;2334;48.710;9.622;2023-03-05T13:26:00;4.60;99.90
4643;DHT22;2334;48.710;9.622;2023-03-05T13:28:28;4.60;99.90
4643;DHT22;2334;48.710;9.622;2023-03-05T13:30:58;4.60;99.90
4643;DHT22;2334;48.710;9.622;2023-03-05T13:33:29;4.60;99.90
4643;DHT22;2334;48.710;9.622;2023-03-05T13:35:56;4.60;99.90
4643;DHT22;2334;48.710;9.622;2023-03-05T13:38:28;4.70;99.90
4643;DHT22;2334;48.710;9.622;2023-03-05T13:43:45;4.60;99.90
4643;DHT22;2334;48.710;9.622;2023-03-05T13:46:22;4.60;99.90
4643;DHT22;2334;48.710;9.622;2023-03-05T13:48:49;4.70;99.90
4643;DHT22;2334;48.710;9.622;2023-03-05T13:51:16;4.70;99.90
4643;DHT22;2334;48.710;9.622;2023-03-05T13:53:43;4.60;99.90
4643;DHT22;2334;48.710;9.622;2023-03-05T13:56:18;4.60;99.90
4643;DHT22;2334;48.710;9.622;2023-03-05T13:58:47;4.70;99.90
4643;DHT22;2334;48.710;9.622;2023-03-05T14:01:24;4.60;99.90
4643;DHT22;2334;48.710;9.622;2023-03-05T14:03:52;4.70;99.90
4643;DHT22;2334;48.710;9.622;2023-03-05T14:06:21;4.70;99.90
4643;DHT22;2334;48.710;9.622;2023-03-05T14:08:50;4.70;99.90
4643;DHT22;2334;48.710;9.622;2023-03-05T14:11:18;4.70;99.90
4643;DHT22;2334;48.710;9.622;2023-03-05T14:13:46;4.70;99.90
4643;DHT22;2334;48.710;9.622;2023-03-05T14:16:22;4.60;99.90
4643;DHT22;2334;48.710;9.622;2023-03-05T14:18:55;4.60;99.90
4643;DHT22;2334;48.710;9.622;2023-03-05T14:21:22;4.60;99.90
4643;DHT22;2334;48.710;9.622;2023-03-05T14:23:51;4.60;99.90
4643;DHT22;2334;48.710;9.622;2023-03-05T14:26:30;4.60;99.90
4643;DHT22;2334;48.710;9.622;2023-03-05T14:29:00;4.70;99.90
4643;DHT22;2334;48.710;9.622;2023-03-05T14:31:29;4.70;99.90
4643;DHT22;2334;48.710;9.622;2023-03-05T14:34:02;4.70;99.90
4643;DHT22;2334;48.710;9.622;2023-03-05T14:36:31;4.80;99.90
4643;DHT22;2334;48.710;9.622;2023-03-05T14:38:59;4.80;99.90
4643;DHT22;2334;48.710;9.622;2023-03-05T14:41:36;4.70;99.90
4643;DHT22;2334;48.710;9.622;2023-03-05T14:44:10;4.80;99.90
4643;DHT22;2334;48.710;9.622;2023-03-05T14:46:38;4.70;99.90
4643;DHT22;2334;48.710;9.622;2023-03-05T14:49:07;4.70;99.90
4643;DHT22;2334;48.710;9.622;2023-03-05T14:51:40;4.60;99.90
4643;DHT22;2334;48.710;9.622;2023-03-05T14:54:18;4.70;99.90
4643;DHT22;2334;48.710;9.622;2023-03-05T14:56:45;4.60;99.90
4643;DHT22;2334;48.710;9.622;2023-03-05T14:59:12;4.60;99.90
4643;DHT22;2334;48.710;9.622;2023-03-05T15:01:39;4.60;99.90
4643;DHT22;2334;48.710;9.622;2023-03-05T15:04:07;4.70;99.90
4643;DHT22;2334;48.710;9.622;2023-03-05T15:06:36;4.60;99.90
4643;DHT22;2334;48.710;9.622;2023-03-05T15:09:06;4.60;99.90
4643;DHT22;2334;48.710;9.622;2023-03-05T15:11:33;4.60;99.90
4643;DHT22;2334;48.710;9.622;2023-03-05T15:14:00;4.50;99.90
4643;DHT22;2334;48.710;9.622;2023-03-05T15:16:27;4.50;99.90
4643;DHT22;2334;48.710;9.622;2023-03-05T15:18:54;4.60;99.90
4643;DHT22;2334;48.710;9.622;2023-03-05T15:21:22;4.60;99.90
4643;DHT22;2334;48.710;9.622;2023-03-05T15:23:49;4.60;99.90
4643;DHT22;2334;48.710;9.622;2023-03-05T15:26:16;4.70;99.90
4643;DHT22;2334;48.710;9.622;2023-03-05T15:28:43;4.70;99.90
4643;DHT22;2334;48.710;9.622;2023-03-05T15:31:10;4.60;99.90
4643;DHT22;2334;48.710;9.622;2023-03-05T15:33:37;4.70;99.90
4643;DHT22;2334;48.710;9.622;2023-03-05T15:36:07;4.70;99.90
4643;DHT22;2334;48.710;9.622;2023-03-05T15:38:35;4.60;99.90
4643;DHT22;2334;48.710;9.622;2023-03-05T15:41:03;4.60;99.90
4643;DHT22;2334;48.710;9.622;2023-03-05T15:43:30;4.70;99.90
4643;DHT22;2334;48.710;9.622;2023-03-05T15:45:57;4.60;99.90
4643;DHT22;2334;48.710;9.622;2023-03-05T15:48:24;4.60;99.90
4643;DHT22;2334;48.710;9.622;2023-03-05T15:50:51;4.60;99.90
4643;DHT22;2334;48.710;9.622;2023-03-05T15:53:18;4.60;99.90
4643;DHT22;2334;48.710;9.622;2023-03-05T15:55:48;4.60;99.90
4643;DHT22;2334;48.710;9.622;2023-03-05T15:58:15;4.60;99.90
4643;DHT22;2334;48.710;9.622;2023-03-05T16:00:43;4.60;99.90
4643;DHT22;2334;48.710;9.622;2023-03-05T16:03:11;4.60;99.90
4643;DHT22;2334;48.710;9.622;2023-03-05T16:05:38;4.60;99.90
4643;DHT22;2334;48.710;9.622;2023-03-05T16:08:06;4.70;99.90
4643;DHT22;2334;48.710;9.622;2023-03-05T16:10:34;4.60;99.90
4643;DHT22;2334;48.710;9.622;2023-03-05T16:13:08;4.60;99.90
4643;DHT22;2334;48.710;9.622;2023-03-05T16:15:37;4.50;99.90
4643;DHT22;2334;48.710;9.622;2023-03-05T16:18:08;4.50;99.90
4643;DHT22;2334;48.710;9.622;2023-03-05T16:20:36;4.50;99.90
4643;DHT22;2334;48.710;9.622;2023-03-05T16:23:03;4.40;99.90
4643;DHT22;2334;48.710;9.622;2023-03-05T16:25:31;4.30;99.90
4643;DHT22;2334;48.710;9.622;2023-03-05T16:27:58;4.30;99.90
4643;DHT22;2334;48.710;9.622;2023-03-05T16:30:26;4.30;99.90
4643;DHT22;2334;48.710;9.622;2023-03-05T16:32:53;4.30;99.90
4643;DHT22;2334;48.710;9.622;2023-03-05T16:35:20;4.30;99.90
4643;DHT22;2334;48.710;9.622;2023-03-05T16:37:47;4.30;99.90
4643;DHT22;2334;48.710;9.622;2023-03-05T16:40:14;4.30;99.90
4643;DHT22;2334;48.710;9.622;2023-03-05T16:42:42;4.20;99.90
4643;DHT22;2334;48.710;9.622;2023-03-05T16:45:10;4.10;99.90